Farrell Flat Airport

Jump to: basic info | weather | frequencies | runways | comments

Related pages: nearby airports | nearby navaids | notams | map

Basic information (top)

Codes: YFFT
Location: lon -33.833302, lat 138.766998
Status: small_airport

Weather (top)

Current conditions for Adelaide International Airport 68nm (125km) S (rec'd 2014/07/23 18:00Z):

YPAD 231800Z 03016KT 5000 RA BKN018 OVC021 10/09 Q1005 FM1820 05014KT 9999 -RA FEW025 BKN045 FM2030 02008KT 9999 -DZ BKN008 TEMPO 1800/2100 3000 DZ BKN006

Airport forecast for Adelaide International Airport 68nm (125km) S (rec'd 2014/07/23 18:33Z):

TAF TAF YPAD 231729Z 2318/2424 05014KT 9999 -RA FEW025 BKN045 
     FM232000 02008KT 9999 -DZ BKN008 
     FM240000 02008KT 9999 -DZ SCT008 BKN012 
     FM240100 31012KT 9999 -SHRA FEW015 BKN025 
     FM241800 30010KT 8000 -SHRA BKN005 
      TEMPO 2320/2401 3000 DZ BKN006 INTER 2401/2412 3000 SHRA SCT010 BKN015 
      TEMPO 2412/2424 3000 SHRA BKN008

Frequencies (top)

Verify before use: may be inaccurate or out of date.

CTAF: 122.4 MHz (CTAF)
MISC: 114.2 MHz (MISC)
MISC: 119.8 MHz (MISC)
MISC: 121.3 MHz (MISC)

Runways (top)

03/21: 1,443 ft (440 m) — grass — not lighted

14/32: 2,486 ft (758 m) — grass — not lighted

Latest comments (top)

No comments yet for Farrell Flat Airport

More... (top)

See also NOTAMs and nearby airports and navaids, or visit the Farrell Flat Airport page at the main OurAirports website..